Ana Sayfa
METAR-TAF:

METAR-TAF

Havaalanları :

New Bedford, Massachusetts, Amerika Birleşik Devletleri

Enlem: 41-40-31N, Boylam: 070-57-25W, yükseklik: 24 m

Güncel hava durumu gözlemi

Rapor saat 01:53 UTC de 54 dakika önce yapıldı.
Rüzgar değişken yönden 6 kt
Sıcaklık 4°C
Nem 93%
Basınç 1004 hPa
Görüş mesafesi: 9.7 km
600 ft yükseklikte çok bulutlu
Pus

METAR: KEWB 190153Z VRB06KT 6SM BR OVC006 04/03 A2965 RMK AO2 SLP039 T00390028

Saat: 21:47 (02:47 UTC)


TAF: eksik

4.000'den fazla havaalanı için hava durumu gözlemleri ve tahminleri (METAR ve TAF raporları).

Kullanılabilir istasyonlar harita üzerinde sarı ve kırmızı noktalarla gösterilir.

İstasyonun adını görmek için fareyi noktanın üzerinde gezdirin.

Sonrasında hava gözlem ve tahminlerini görmek için tıklayın.

Haritayı değiştirmek için: yaklaştırmak için siyah artı işaretli yeşil düğmeye ve uzaklaştırmak için de eksi işaretli düğmeye hızla tıklayın; bitişik haritalar için yeşil okları kullanın.


METAR-TAF: